sensor_id;sensor_type;location;lat;lon;timestamp;P1;durP1;ratioP1;P2;durP2;ratioP2
21663;SDS011;10993;52.510;13.456;2023-02-28T00:04:44;6.05;;;1.83;;
21663;SDS011;10993;52.510;13.456;2023-02-28T00:09:44;5.27;;;1.73;;
21663;SDS011;10993;52.510;13.456;2023-02-28T00:14:45;4.07;;;1.80;;
21663;SDS011;10993;52.510;13.456;2023-02-28T00:19:46;4.63;;;1.70;;
21663;SDS011;10993;52.510;13.456;2023-02-28T00:24:48;5.47;;;1.60;;
21663;SDS011;10993;52.510;13.456;2023-02-28T00:29:48;4.47;;;1.70;;
21663;SDS011;10993;52.510;13.456;2023-02-28T00:34:50;4.40;;;1.80;;
21663;SDS011;10993;52.510;13.456;2023-02-28T00:39:50;4.17;;;2.00;;
21663;SDS011;10993;52.510;13.456;2023-02-28T00:44:50;6.90;;;1.80;;
21663;SDS011;10993;52.510;13.456;2023-02-28T00:49:52;4.27;;;1.50;;
21663;SDS011;10993;52.510;13.456;2023-02-28T00:54:52;4.80;;;2.00;;
21663;SDS011;10993;52.510;13.456;2023-02-28T00:59:53;5.93;;;2.10;;
21663;SDS011;10993;52.510;13.456;2023-02-28T01:04:57;5.23;;;1.70;;
21663;SDS011;10993;52.510;13.456;2023-02-28T01:09:58;4.10;;;1.67;;
21663;SDS011;10993;52.510;13.456;2023-02-28T01:14:58;6.57;;;2.43;;
21663;SDS011;10993;52.510;13.456;2023-02-28T01:20:00;5.50;;;2.03;;
21663;SDS011;10993;52.510;13.456;2023-02-28T01:25:00;7.63;;;2.23;;
21663;SDS011;10993;52.510;13.456;2023-02-28T01:30:00;3.87;;;1.83;;
21663;SDS011;10993;52.510;13.456;2023-02-28T01:35:02;5.20;;;2.23;;
21663;SDS011;10993;52.510;13.456;2023-02-28T01:40:03;5.93;;;2.20;;
21663;SDS011;10993;52.510;13.456;2023-02-28T01:45:06;7.63;;;2.13;;
21663;SDS011;10993;52.510;13.456;2023-02-28T01:50:21;5.43;;;2.23;;
21663;SDS011;10993;52.510;13.456;2023-02-28T01:55:24;4.87;;;1.90;;
21663;SDS011;10993;52.510;13.456;2023-02-28T02:00:28;5.30;;;2.27;;
21663;SDS011;10993;52.510;13.456;2023-02-28T02:05:31;5.27;;;1.97;;
21663;SDS011;10993;52.510;13.456;2023-02-28T02:10:33;4.10;;;1.90;;
21663;SDS011;10993;52.510;13.456;2023-02-28T02:15:37;6.00;;;2.30;;
21663;SDS011;10993;52.510;13.456;2023-02-28T02:26:36;6.03;;;2.63;;
21663;SDS011;10993;52.510;13.456;2023-02-28T02:31:51;7.87;;;2.30;;
21663;SDS011;10993;52.510;13.456;2023-02-28T02:37:13;4.97;;;2.40;;
21663;SDS011;10993;52.510;13.456;2023-02-28T02:42:20;6.77;;;2.50;;
21663;SDS011;10993;52.510;13.456;2023-02-28T02:47:25;9.37;;;3.00;;
21663;SDS011;10993;52.510;13.456;2023-02-28T02:52:29;5.23;;;2.23;;
21663;SDS011;10993;52.510;13.456;2023-02-28T02:57:36;4.07;;;2.37;;
21663;SDS011;10993;52.510;13.456;2023-02-28T03:02:41;6.67;;;2.73;;
21663;SDS011;10993;52.510;13.456;2023-02-28T03:07:45;6.47;;;2.53;;
21663;SDS011;10993;52.510;13.456;2023-02-28T03:12:47;5.30;;;2.37;;
21663;SDS011;10993;52.510;13.456;2023-02-28T03:18:00;7.23;;;2.73;;
21663;SDS011;10993;52.510;13.456;2023-02-28T03:23:10;8.17;;;2.37;;
21663;SDS011;10993;52.510;13.456;2023-02-28T03:28:17;4.87;;;2.37;;
21663;SDS011;10993;52.510;13.456;2023-02-28T03:33:23;6.53;;;2.87;;
21663;SDS011;10993;52.510;13.456;2023-02-28T03:38:29;6.90;;;2.33;;
21663;SDS011;10993;52.510;13.456;2023-02-28T03:43:34;5.47;;;2.07;;
21663;SDS011;10993;52.510;13.456;2023-02-28T03:48:39;7.97;;;2.93;;
21663;SDS011;10993;52.510;13.456;2023-02-28T03:53:44;6.13;;;2.63;;
21663;SDS011;10993;52.510;13.456;2023-02-28T03:58:48;7.60;;;2.57;;
21663;SDS011;10993;52.510;13.456;2023-02-28T04:03:54;9.23;;;2.60;;
21663;SDS011;10993;52.510;13.456;2023-02-28T04:08:56;6.83;;;2.63;;
21663;SDS011;10993;52.510;13.456;2023-02-28T04:13:56;10.67;;;3.37;;
21663;SDS011;10993;52.510;13.456;2023-02-28T04:18:57;7.30;;;2.97;;
21663;SDS011;10993;52.510;13.456;2023-02-28T04:24:03;5.83;;;2.90;;
21663;SDS011;10993;52.510;13.456;2023-02-28T04:29:06;9.60;;;2.87;;
21663;SDS011;10993;52.510;13.456;2023-02-28T04:34:07;5.67;;;2.80;;
21663;SDS011;10993;52.510;13.456;2023-02-28T04:39:09;7.80;;;3.03;;
21663;SDS011;10993;52.510;13.456;2023-02-28T04:44:09;7.20;;;3.03;;
21663;SDS011;10993;52.510;13.456;2023-02-28T04:49:10;10.50;;;2.93;;
21663;SDS011;10993;52.510;13.456;2023-02-28T04:54:13;7.27;;;3.20;;
21663;SDS011;10993;52.510;13.456;2023-02-28T04:59:13;7.10;;;3.00;;
21663;SDS011;10993;52.510;13.456;2023-02-28T05:04:14;6.18;;;2.88;;
21663;SDS011;10993;52.510;13.456;2023-02-28T05:09:16;6.70;;;2.73;;
21663;SDS011;10993;52.510;13.456;2023-02-28T05:14:16;5.40;;;2.60;;
21663;SDS011;10993;52.510;13.456;2023-02-28T05:19:16;7.70;;;2.80;;
21663;SDS011;10993;52.510;13.456;2023-02-28T05:24:18;6.83;;;2.90;;
21663;SDS011;10993;52.510;13.456;2023-02-28T05:29:25;6.77;;;2.50;;
21663;SDS011;10993;52.510;13.456;2023-02-28T05:34:25;7.00;;;3.00;;
21663;SDS011;10993;52.510;13.456;2023-02-28T05:39:27;7.70;;;3.33;;
21663;SDS011;10993;52.510;13.456;2023-02-28T05:44:27;7.67;;;2.80;;
21663;SDS011;10993;52.510;13.456;2023-02-28T05:49:27;7.73;;;3.13;;
21663;SDS011;10993;52.510;13.456;2023-02-28T05:54:29;6.77;;;2.97;;
21663;SDS011;10993;52.510;13.456;2023-02-28T05:59:29;7.50;;;2.63;;
21663;SDS011;10993;52.510;13.456;2023-02-28T06:04:30;6.10;;;3.00;;
21663;SDS011;10993;52.510;13.456;2023-02-28T06:09:32;8.47;;;3.37;;
21663;SDS011;10993;52.510;13.456;2023-02-28T06:14:32;7.27;;;3.77;;
21663;SDS011;10993;52.510;13.456;2023-02-28T06:19:33;11.83;;;3.73;;
21663;SDS011;10993;52.510;13.456;2023-02-28T06:24:35;11.20;;;4.20;;
21663;SDS011;10993;52.510;13.456;2023-02-28T06:29:35;10.20;;;3.80;;
21663;SDS011;10993;52.510;13.456;2023-02-28T06:34:37;11.80;;;4.10;;
21663;SDS011;10993;52.510;13.456;2023-02-28T06:39:38;8.88;;;3.60;;
21663;SDS011;10993;52.510;13.456;2023-02-28T06:44:39;9.37;;;3.93;;
21663;SDS011;10993;52.510;13.456;2023-02-28T06:49:40;9.90;;;3.53;;
21663;SDS011;10993;52.510;13.456;2023-02-28T06:54:41;11.10;;;4.47;;
21663;SDS011;10993;52.510;13.456;2023-02-28T06:59:42;12.20;;;4.03;;
21663;SDS011;10993;52.510;13.456;2023-02-28T07:04:42;13.97;;;4.40;;
21663;SDS011;10993;52.510;13.456;2023-02-28T07:09:45;10.80;;;3.63;;
21663;SDS011;10993;52.510;13.456;2023-02-28T07:14:46;10.40;;;4.38;;
21663;SDS011;10993;52.510;13.456;2023-02-28T07:19:46;9.02;;;4.03;;
21663;SDS011;10993;52.510;13.456;2023-02-28T07:24:48;9.43;;;3.70;;
21663;SDS011;10993;52.510;13.456;2023-02-28T07:29:48;9.30;;;3.80;;
21663;SDS011;10993;52.510;13.456;2023-02-28T07:34:48;12.25;;;3.50;;
21663;SDS011;10993;52.510;13.456;2023-02-28T07:39:50;8.63;;;3.20;;
21663;SDS011;10993;52.510;13.456;2023-02-28T07:44:51;7.18;;;3.25;;
21663;SDS011;10993;52.510;13.456;2023-02-28T07:49:52;11.90;;;4.15;;
21663;SDS011;10993;52.510;13.456;2023-02-28T07:54:54;6.32;;;2.88;;
21663;SDS011;10993;52.510;13.456;2023-02-28T07:59:54;9.80;;;3.50;;
21663;SDS011;10993;52.510;13.456;2023-02-28T08:04:55;4.90;;;2.13;;
21663;SDS011;10993;52.510;13.456;2023-02-28T08:09:57;5.07;;;2.10;;
21663;SDS011;10993;52.510;13.456;2023-02-28T08:14:57;5.53;;;1.75;;
21663;SDS011;10993;52.510;13.456;2023-02-28T08:19:58;3.92;;;1.30;;
21663;SDS011;10993;52.510;13.456;2023-02-28T08:24:59;5.75;;;2.08;;
21663;SDS011;10993;52.510;13.456;2023-02-28T08:30:00;3.88;;;1.50;;
21663;SDS011;10993;52.510;13.456;2023-02-28T08:35:00;4.88;;;2.33;;
21663;SDS011;10993;52.510;13.456;2023-02-28T08:40:03;6.20;;;2.55;;
21663;SDS011;10993;52.510;13.456;2023-02-28T08:45:05;5.35;;;1.67;;
21663;SDS011;10993;52.510;13.456;2023-02-28T08:50:06;4.07;;;1.90;;
21663;SDS011;10993;52.510;13.456;2023-02-28T08:55:09;5.82;;;1.75;;
21663;SDS011;10993;52.510;13.456;2023-02-28T09:00:10;3.67;;;1.48;;
21663;SDS011;10993;52.510;13.456;2023-02-28T09:05:13;2.53;;;1.10;;
21663;SDS011;10993;52.510;13.456;2023-02-28T09:10:15;5.15;;;1.88;;
21663;SDS011;10993;52.510;13.456;2023-02-28T09:15:16;5.78;;;1.58;;
21663;SDS011;10993;52.510;13.456;2023-02-28T09:20:16;4.28;;;1.58;;
21663;SDS011;10993;52.510;13.456;2023-02-28T09:25:18;3.00;;;1.45;;
21663;SDS011;10993;52.510;13.456;2023-02-28T09:30:19;3.92;;;1.65;;
21663;SDS011;10993;52.510;13.456;2023-02-28T09:35:19;3.25;;;1.77;;
21663;SDS011;10993;52.510;13.456;2023-02-28T09:40:22;3.70;;;1.15;;
21663;SDS011;10993;52.510;13.456;2023-02-28T09:45:27;3.08;;;1.35;;
21663;SDS011;10993;52.510;13.456;2023-02-28T09:50:33;2.42;;;1.17;;
21663;SDS011;10993;52.510;13.456;2023-02-28T09:55:39;2.92;;;1.00;;
21663;SDS011;10993;52.510;13.456;2023-02-28T10:00:44;3.35;;;1.20;;
21663;SDS011;10993;52.510;13.456;2023-02-28T10:05:56;4.13;;;1.40;;
21663;SDS011;10993;52.510;13.456;2023-02-28T10:11:06;3.90;;;1.33;;
21663;SDS011;10993;52.510;13.456;2023-02-28T10:16:08;2.63;;;1.10;;
21663;SDS011;10993;52.510;13.456;2023-02-28T10:21:15;3.08;;;1.15;;
21663;SDS011;10993;52.510;13.456;2023-02-28T10:26:20;4.38;;;1.13;;
21663;SDS011;10993;52.510;13.456;2023-02-28T10:31:20;2.60;;;1.40;;
21663;SDS011;10993;52.510;13.456;2023-02-28T10:36:21;2.60;;;1.38;;
21663;SDS011;10993;52.510;13.456;2023-02-28T10:41:29;5.40;;;1.42;;
21663;SDS011;10993;52.510;13.456;2023-02-28T10:46:36;4.18;;;1.60;;
21663;SDS011;10993;52.510;13.456;2023-02-28T10:51:37;2.78;;;1.33;;
21663;SDS011;10993;52.510;13.456;2023-02-28T10:56:40;3.40;;;1.33;;
21663;SDS011;10993;52.510;13.456;2023-02-28T11:01:41;4.32;;;1.40;;
21663;SDS011;10993;52.510;13.456;2023-02-28T11:06:45;3.35;;;1.40;;
21663;SDS011;10993;52.510;13.456;2023-02-28T11:11:47;2.85;;;1.48;;
21663;SDS011;10993;52.510;13.456;2023-02-28T11:16:49;5.97;;;2.00;;
21663;SDS011;10993;52.510;13.456;2023-02-28T11:21:52;3.63;;;1.77;;
21663;SDS011;10993;52.510;13.456;2023-02-28T11:26:58;3.30;;;1.30;;
21663;SDS011;10993;52.510;13.456;2023-02-28T11:32:03;3.88;;;1.95;;
21663;SDS011;10993;52.510;13.456;2023-02-28T11:37:08;6.18;;;1.98;;
21663;SDS011;10993;52.510;13.456;2023-02-28T11:42:16;4.75;;;1.90;;
21663;SDS011;10993;52.510;13.456;2023-02-28T11:47:28;4.00;;;1.50;;
21663;SDS011;10993;52.510;13.456;2023-02-28T11:52:35;3.80;;;1.85;;
21663;SDS011;10993;52.510;13.456;2023-02-28T11:57:48;4.68;;;1.77;;
21663;SDS011;10993;52.510;13.456;2023-02-28T12:02:59;4.93;;;1.92;;
21663;SDS011;10993;52.510;13.456;2023-02-28T12:08:15;3.75;;;1.85;;
21663;SDS011;10993;52.510;13.456;2023-02-28T12:13:29;4.15;;;1.90;;
21663;SDS011;10993;52.510;13.456;2023-02-28T12:18:50;3.08;;;1.50;;
21663;SDS011;10993;52.510;13.456;2023-02-28T12:24:09;2.95;;;1.48;;
21663;SDS011;10993;52.510;13.456;2023-02-28T12:29:26;4.63;;;1.88;;
21663;SDS011;10993;52.510;13.456;2023-02-28T12:34:31;4.65;;;1.90;;
21663;SDS011;10993;52.510;13.456;2023-02-28T12:39:36;3.22;;;1.38;;
21663;SDS011;10993;52.510;13.456;2023-02-28T12:44:46;5.22;;;1.80;;
21663;SDS011;10993;52.510;13.456;2023-02-28T12:49:52;2.50;;;1.23;;
21663;SDS011;10993;52.510;13.456;2023-02-28T12:54:59;4.28;;;1.63;;
21663;SDS011;10993;52.510;13.456;2023-02-28T13:00:08;3.97;;;1.55;;
21663;SDS011;10993;52.510;13.456;2023-02-28T13:10:47;2.65;;;1.38;;
21663;SDS011;10993;52.510;13.456;2023-02-28T13:16:03;2.25;;;1.15;;
21663;SDS011;10993;52.510;13.456;2023-02-28T13:21:06;6.07;;;1.70;;
21663;SDS011;10993;52.510;13.456;2023-02-28T13:26:07;3.50;;;1.70;;
21663;SDS011;10993;52.510;13.456;2023-02-28T13:31:09;4.80;;;1.95;;
21663;SDS011;10993;52.510;13.456;2023-02-28T13:36:12;4.63;;;1.67;;
21663;SDS011;10993;52.510;13.456;2023-02-28T13:41:43;4.27;;;1.83;;
21663;SDS011;10993;52.510;13.456;2023-02-28T13:52:25;3.17;;;1.40;;
21663;SDS011;10993;52.510;13.456;2023-02-28T13:57:30;2.83;;;1.13;;
21663;SDS011;10993;52.510;13.456;2023-02-28T14:02:45;4.32;;;1.38;;
21663;SDS011;10993;52.510;13.456;2023-02-28T14:07:59;3.83;;;1.53;;
21663;SDS011;10993;52.510;13.456;2023-02-28T14:18:47;3.92;;;1.60;;
21663;SDS011;10993;52.510;13.456;2023-02-28T14:24:03;3.80;;;1.67;;
21663;SDS011;10993;52.510;13.456;2023-02-28T14:29:35;4.00;;;1.58;;
21663;SDS011;10993;52.510;13.456;2023-02-28T14:34:48;8.80;;;3.30;;
21663;SDS011;10993;52.510;13.456;2023-02-28T14:39:54;3.10;;;1.23;;
21663;SDS011;10993;52.510;13.456;2023-02-28T14:44:56;5.10;;;1.77;;
21663;SDS011;10993;52.510;13.456;2023-02-28T14:49:57;4.00;;;1.52;;
21663;SDS011;10993;52.510;13.456;2023-02-28T14:55:00;4.80;;;2.13;;
21663;SDS011;10993;52.510;13.456;2023-02-28T15:00:06;5.47;;;1.73;;
21663;SDS011;10993;52.510;13.456;2023-02-28T15:05:22;5.40;;;1.97;;
21663;SDS011;10993;52.510;13.456;2023-02-28T15:10:28;7.47;;;2.13;;
21663;SDS011;10993;52.510;13.456;2023-02-28T15:15:35;5.33;;;1.63;;
21663;SDS011;10993;52.510;13.456;2023-02-28T15:20:43;3.30;;;1.87;;
21663;SDS011;10993;52.510;13.456;2023-02-28T15:25:45;3.20;;;1.77;;
21663;SDS011;10993;52.510;13.456;2023-02-28T15:30:51;3.50;;;1.60;;
21663;SDS011;10993;52.510;13.456;2023-02-28T15:36:03;4.40;;;1.80;;
21663;SDS011;10993;52.510;13.456;2023-02-28T15:41:23;5.43;;;2.10;;
21663;SDS011;10993;52.510;13.456;2023-02-28T15:46:25;3.40;;;1.57;;
21663;SDS011;10993;52.510;13.456;2023-02-28T15:51:27;4.57;;;1.80;;
21663;SDS011;10993;52.510;13.456;2023-02-28T15:56:35;4.73;;;1.70;;
21663;SDS011;10993;52.510;13.456;2023-02-28T16:01:39;3.80;;;1.80;;
21663;SDS011;10993;52.510;13.456;2023-02-28T16:06:39;3.83;;;1.83;;
21663;SDS011;10993;52.510;13.456;2023-02-28T16:11:46;5.93;;;2.07;;
21663;SDS011;10993;52.510;13.456;2023-02-28T16:16:49;3.33;;;1.33;;
21663;SDS011;10993;52.510;13.456;2023-02-28T16:21:51;4.07;;;2.10;;
21663;SDS011;10993;52.510;13.456;2023-02-28T16:26:53;4.90;;;1.93;;
21663;SDS011;10993;52.510;13.456;2023-02-28T16:31:56;4.50;;;2.10;;
21663;SDS011;10993;52.510;13.456;2023-02-28T16:36:57;3.67;;;1.90;;
21663;SDS011;10993;52.510;13.456;2023-02-28T16:41:59;4.33;;;1.77;;
21663;SDS011;10993;52.510;13.456;2023-02-28T16:47:00;7.27;;;2.07;;
21663;SDS011;10993;52.510;13.456;2023-02-28T16:52:01;4.03;;;2.00;;
21663;SDS011;10993;52.510;13.456;2023-02-28T16:57:03;4.50;;;2.23;;
21663;SDS011;10993;52.510;13.456;2023-02-28T17:02:07;7.33;;;2.20;;
21663;SDS011;10993;52.510;13.456;2023-02-28T17:07:12;4.23;;;2.10;;
21663;SDS011;10993;52.510;13.456;2023-02-28T17:12:15;5.27;;;2.10;;
21663;SDS011;10993;52.510;13.456;2023-02-28T17:17:20;6.37;;;2.83;;
21663;SDS011;10993;52.510;13.456;2023-02-28T17:22:21;5.53;;;2.70;;
21663;SDS011;10993;52.510;13.456;2023-02-28T17:27:23;4.70;;;2.40;;
21663;SDS011;10993;52.510;13.456;2023-02-28T17:32:23;5.13;;;2.07;;
21663;SDS011;10993;52.510;13.456;2023-02-28T17:37:23;6.77;;;3.03;;
21663;SDS011;10993;52.510;13.456;2023-02-28T17:42:25;8.10;;;3.20;;
21663;SDS011;10993;52.510;13.456;2023-02-28T17:47:25;11.57;;;3.50;;
21663;SDS011;10993;52.510;13.456;2023-02-28T17:52:26;5.93;;;2.80;;
21663;SDS011;10993;52.510;13.456;2023-02-28T17:57:27;5.77;;;3.03;;
21663;SDS011;10993;52.510;13.456;2023-02-28T18:02:28;6.57;;;3.33;;
21663;SDS011;10993;52.510;13.456;2023-02-28T18:07:28;5.83;;;2.67;;
21663;SDS011;10993;52.510;13.456;2023-02-28T18:12:30;7.20;;;3.23;;
21663;SDS011;10993;52.510;13.456;2023-02-28T18:17:31;7.53;;;3.20;;
21663;SDS011;10993;52.510;13.456;2023-02-28T18:22:31;9.87;;;3.90;;
21663;SDS011;10993;52.510;13.456;2023-02-28T18:27:33;6.87;;;2.87;;
21663;SDS011;10993;52.510;13.456;2023-02-28T18:32:33;5.77;;;2.90;;
21663;SDS011;10993;52.510;13.456;2023-02-28T18:37:34;7.90;;;3.43;;
21663;SDS011;10993;52.510;13.456;2023-02-28T18:42:36;7.40;;;3.90;;
21663;SDS011;10993;52.510;13.456;2023-02-28T18:47:38;9.47;;;4.43;;
21663;SDS011;10993;52.510;13.456;2023-02-28T18:52:38;9.63;;;3.80;;
21663;SDS011;10993;52.510;13.456;2023-02-28T18:57:40;9.33;;;3.70;;
21663;SDS011;10993;52.510;13.456;2023-02-28T19:02:41;12.73;;;4.43;;
21663;SDS011;10993;52.510;13.456;2023-02-28T19:07:42;12.87;;;5.33;;
21663;SDS011;10993;52.510;13.456;2023-02-28T19:12:43;12.63;;;5.17;;
21663;SDS011;10993;52.510;13.456;2023-02-28T19:17:44;11.00;;;4.73;;
21663;SDS011;10993;52.510;13.456;2023-02-28T19:22:45;14.37;;;5.33;;
21663;SDS011;10993;52.510;13.456;2023-02-28T19:27:46;13.80;;;5.40;;
21663;SDS011;10993;52.510;13.456;2023-02-28T19:32:47;8.00;;;4.47;;
21663;SDS011;10993;52.510;13.456;2023-02-28T19:37:48;12.73;;;5.00;;
21663;SDS011;10993;52.510;13.456;2023-02-28T19:42:50;12.90;;;5.47;;
21663;SDS011;10993;52.510;13.456;2023-02-28T19:47:51;10.77;;;4.83;;
21663;SDS011;10993;52.510;13.456;2023-02-28T19:52:51;13.23;;;4.60;;
21663;SDS011;10993;52.510;13.456;2023-02-28T19:57:53;15.07;;;5.40;;
21663;SDS011;10993;52.510;13.456;2023-02-28T20:02:53;14.43;;;5.73;;
21663;SDS011;10993;52.510;13.456;2023-02-28T20:07:54;12.07;;;4.70;;
21663;SDS011;10993;52.510;13.456;2023-02-28T20:12:56;8.87;;;3.97;;
21663;SDS011;10993;52.510;13.456;2023-02-28T20:17:56;13.23;;;5.80;;
21663;SDS011;10993;52.510;13.456;2023-02-28T20:22:58;13.87;;;6.00;;
21663;SDS011;10993;52.510;13.456;2023-02-28T20:28:00;13.73;;;6.33;;
21663;SDS011;10993;52.510;13.456;2023-02-28T20:33:00;12.03;;;6.30;;
21663;SDS011;10993;52.510;13.456;2023-02-28T20:38:01;11.40;;;4.90;;
21663;SDS011;10993;52.510;13.456;2023-02-28T20:43:03;11.60;;;5.10;;
21663;SDS011;10993;52.510;13.456;2023-02-28T20:48:03;10.57;;;4.83;;
21663;SDS011;10993;52.510;13.456;2023-02-28T20:53:04;12.67;;;4.87;;
21663;SDS011;10993;52.510;13.456;2023-02-28T20:58:05;13.93;;;5.13;;
21663;SDS011;10993;52.510;13.456;2023-02-28T21:03:06;20.70;;;8.20;;
21663;SDS011;10993;52.510;13.456;2023-02-28T21:08:06;20.43;;;7.63;;
21663;SDS011;10993;52.510;13.456;2023-02-28T21:13:08;14.93;;;6.33;;
21663;SDS011;10993;52.510;13.456;2023-02-28T21:18:08;12.67;;;5.97;;
21663;SDS011;10993;52.510;13.456;2023-02-28T21:23:11;16.90;;;7.53;;
21663;SDS011;10993;52.510;13.456;2023-02-28T21:28:13;12.60;;;6.00;;
21663;SDS011;10993;52.510;13.456;2023-02-28T21:33:14;12.60;;;5.80;;
21663;SDS011;10993;52.510;13.456;2023-02-28T21:38:14;10.17;;;5.20;;
21663;SDS011;10993;52.510;13.456;2023-02-28T21:43:16;13.43;;;6.10;;
21663;SDS011;10993;52.510;13.456;2023-02-28T21:48:16;12.20;;;5.67;;
21663;SDS011;10993;52.510;13.456;2023-02-28T21:53:16;12.93;;;6.25;;
21663;SDS011;10993;52.510;13.456;2023-02-28T21:58:18;16.93;;;6.37;;
21663;SDS011;10993;52.510;13.456;2023-02-28T22:03:19;13.17;;;6.07;;
21663;SDS011;10993;52.510;13.456;2023-02-28T22:08:19;10.77;;;5.23;;
21663;SDS011;10993;52.510;13.456;2023-02-28T22:13:21;12.60;;;6.37;;
21663;SDS011;10993;52.510;13.456;2023-02-28T22:18:21;13.73;;;6.23;;
21663;SDS011;10993;52.510;13.456;2023-02-28T22:23:22;14.17;;;6.27;;
21663;SDS011;10993;52.510;13.456;2023-02-28T22:28:23;11.40;;;5.73;;
21663;SDS011;10993;52.510;13.456;2023-02-28T22:33:26;11.30;;;5.60;;
21663;SDS011;10993;52.510;13.456;2023-02-28T22:38:27;11.67;;;4.63;;
21663;SDS011;10993;52.510;13.456;2023-02-28T22:43:28;11.57;;;5.10;;
21663;SDS011;10993;52.510;13.456;2023-02-28T22:48:29;12.57;;;5.17;;
21663;SDS011;10993;52.510;13.456;2023-02-28T22:53:30;19.57;;;5.33;;
21663;SDS011;10993;52.510;13.456;2023-02-28T22:58:32;12.67;;;5.83;;
21663;SDS011;10993;52.510;13.456;2023-02-28T23:03:32;12.27;;;5.60;;
21663;SDS011;10993;52.510;13.456;2023-02-28T23:08:33;11.27;;;5.77;;
21663;SDS011;10993;52.510;13.456;2023-02-28T23:13:34;15.17;;;6.37;;
21663;SDS011;10993;52.510;13.456;2023-02-28T23:18:35;16.70;;;6.13;;
21663;SDS011;10993;52.510;13.456;2023-02-28T23:23:35;11.03;;;4.67;;
21663;SDS011;10993;52.510;13.456;2023-02-28T23:28:37;13.97;;;6.40;;
21663;SDS011;10993;52.510;13.456;2023-02-28T23:33:37;15.83;;;5.67;;
21663;SDS011;10993;52.510;13.456;2023-02-28T23:38:39;11.70;;;5.73;;
21663;SDS011;10993;52.510;13.456;2023-02-28T23:43:42;9.50;;;5.20;;
21663;SDS011;10993;52.510;13.456;2023-02-28T23:48:43;13.17;;;6.00;;
21663;SDS011;10993;52.510;13.456;2023-02-28T23:53:44;11.20;;;5.10;;
21663;SDS011;10993;52.510;13.456;2023-02-28T23:58:47;16.60;;;7.10;;
